createdAt,value
2017-10-22T00:00:27.548Z,83.39
2017-10-22T00:01:27.454Z,83.29
2017-10-22T00:02:27.463Z,83.54
2017-10-22T00:03:27.406Z,84.01
2017-10-22T00:04:27.468Z,83.83
2017-10-22T00:05:27.354Z,83.73
2017-10-22T00:06:27.386Z,83.73
2017-10-22T00:07:27.309Z,83.73
2017-10-22T00:08:27.385Z,84.40
2017-10-22T00:09:27.251Z,84.01
2017-10-22T00:10:27.297Z,84.49
2017-10-22T00:11:27.210Z,84.49
2017-10-22T00:12:27.212Z,84.30
2017-10-22T00:13:27.154Z,84.49
2017-10-22T00:14:27.223Z,84.40
2017-10-22T00:15:27.103Z,84.30
2017-10-22T00:16:27.134Z,84.30
2017-10-22T00:17:27.052Z,83.35
2017-10-22T00:18:27.038Z,83.54
2017-10-22T00:19:27.000Z,83.44
2017-10-22T00:20:27.056Z,83.06
2017-10-22T00:21:26.948Z,83.35
2017-10-22T00:22:26.963Z,83.44
2017-10-22T00:23:26.898Z,83.44
2017-10-22T00:24:26.976Z,83.73
2017-10-22T00:25:26.846Z,83.44
2017-10-22T00:26:26.896Z,83.54
2017-10-22T00:27:26.793Z,83.64
2017-10-22T00:28:26.800Z,83.44
2017-10-22T00:29:26.745Z,83.44
2017-10-22T00:30:26.811Z,83.44
2017-10-22T00:31:26.692Z,83.16
2017-10-22T00:32:26.722Z,82.97
2017-10-22T00:33:26.641Z,83.16
2017-10-22T00:34:26.632Z,82.78
2017-10-22T00:35:26.590Z,82.78
2017-10-22T00:36:26.648Z,83.54
2017-10-22T00:37:26.539Z,83.06
2017-10-22T00:38:26.554Z,83.16
2017-10-22T00:39:26.489Z,82.87
2017-10-22T00:40:26.567Z,82.97
2017-10-22T00:41:26.434Z,83.16
2017-10-22T00:42:26.477Z,82.78
2017-10-22T00:43:26.386Z,83.06
2017-10-22T00:44:26.390Z,83.25
2017-10-22T00:45:26.333Z,82.78
2017-10-22T00:46:26.396Z,83.44
2017-10-22T00:47:26.287Z,83.54
2017-10-22T00:48:26.308Z,82.87
2017-10-22T00:49:26.230Z,82.78
2017-10-22T00:50:26.216Z,82.68
2017-10-22T00:51:26.184Z,83.16
2017-10-22T00:52:26.231Z,82.87
2017-10-22T00:53:26.131Z,83.16
2017-10-22T00:54:26.150Z,83.06
2017-10-22T00:55:26.074Z,82.87
2017-10-22T00:56:26.156Z,83.25
2017-10-22T00:57:26.030Z,82.87
2017-10-22T00:58:26.060Z,83.06
2017-10-22T00:59:25.972Z,82.97
2017-10-22T01:00:25.970Z,83.06
2017-10-22T01:01:25.924Z,83.06
2017-10-22T01:02:25.983Z,82.87
2017-10-22T01:03:25.872Z,82.78
2017-10-22T01:04:25.892Z,82.97
2017-10-22T01:05:25.821Z,83.06
2017-10-22T01:06:25.905Z,82.97
2017-10-22T01:07:25.773Z,82.68
2017-10-22T01:08:25.817Z,82.78
2017-10-22T01:09:25.716Z,83.25
2017-10-22T01:10:25.728Z,82.78
2017-10-22T01:11:25.665Z,82.97
2017-10-22T01:12:25.740Z,82.97
2017-10-22T01:13:25.616Z,82.87
2017-10-22T01:14:25.653Z,82.59
2017-10-22T01:15:25.564Z,82.11
2017-10-22T01:16:25.557Z,82.68
2017-10-22T01:17:25.506Z,82.68
2017-10-22T01:18:25.575Z,82.68
2017-10-22T01:19:25.461Z,82.78
2017-10-22T01:20:25.495Z,82.68
2017-10-22T01:21:25.410Z,82.30
2017-10-22T01:22:25.396Z,82.49
2017-10-22T01:23:25.354Z,82.30
2017-10-22T01:24:25.405Z,82.68
2017-10-22T01:25:25.301Z,82.68
2017-10-22T01:26:25.312Z,83.06
2017-10-22T01:27:25.249Z,82.87
2017-10-22T01:28:25.327Z,82.59
2017-10-22T01:29:25.198Z,82.59
2017-10-22T01:30:25.239Z,82.11
2017-10-22T01:31:25.149Z,82.49
2017-10-22T01:32:25.144Z,82.49
2017-10-22T01:33:25.096Z,82.78
2017-10-22T01:34:25.164Z,82.40
2017-10-22T01:35:25.048Z,82.01
2017-10-22T01:36:25.067Z,82.40
2017-10-22T01:37:24.990Z,82.49
2017-10-22T01:38:24.979Z,81.92
2017-10-22T01:39:24.939Z,82.01
2017-10-22T01:40:24.992Z,81.92
2017-10-22T01:41:24.898Z,82.20
2017-10-22T01:42:24.902Z,82.59
2017-10-22T01:43:24.840Z,82.49
2017-10-22T01:44:24.917Z,82.59
2017-10-22T01:45:24.785Z,82.30
2017-10-22T01:46:24.827Z,82.11
2017-10-22T01:47:24.733Z,82.40
2017-10-22T01:48:24.737Z,82.40
2017-10-22T01:49:24.685Z,82.11
2017-10-22T01:50:24.754Z,82.30
2017-10-22T01:51:24.627Z,82.49
2017-10-22T01:52:24.661Z,82.20
2017-10-22T01:53:24.576Z,82.30
2017-10-22T01:54:24.564Z,81.63
2017-10-22T01:55:24.525Z,81.25
2017-10-22T01:56:24.580Z,81.63
2017-10-22T01:57:24.479Z,81.44
2017-10-22T01:58:24.491Z,81.15
2017-10-22T01:59:24.420Z,81.54
2017-10-22T02:00:24.502Z,81.92
2017-10-22T02:01:24.366Z,81.82
2017-10-22T02:02:24.411Z,81.44
2017-10-22T02:03:24.318Z,81.25
2017-10-22T02:04:24.334Z,81.35
2017-10-22T02:05:24.264Z,81.25
2017-10-22T02:06:24.338Z,81.44
2017-10-22T02:07:24.214Z,81.73
2017-10-22T02:08:24.242Z,81.15
2017-10-22T02:09:24.162Z,81.15
2017-10-22T02:10:24.151Z,81.35
2017-10-22T02:11:24.119Z,81.44
2017-10-22T02:12:24.167Z,81.15
2017-10-22T02:13:24.063Z,80.96
2017-10-22T02:14:24.079Z,80.20
2017-10-22T02:15:24.005Z,80.49
2017-10-22T02:16:24.091Z,80.58
2017-10-22T02:17:23.956Z,80.30
2017-10-22T02:18:24.004Z,80.77
2017-10-22T02:19:23.900Z,80.87
2017-10-22T02:20:23.915Z,80.20
2017-10-22T02:21:23.847Z,80.20
2017-10-22T02:22:23.926Z,79.91
2017-10-22T02:23:23.803Z,80.30
2017-10-22T02:24:23.836Z,80.01
2017-10-22T02:25:23.746Z,79.72
2017-10-22T02:26:23.753Z,79.82
2017-10-22T02:27:23.700Z,79.82
2017-10-22T02:28:23.763Z,79.53
2017-10-22T02:29:23.641Z,79.35
2017-10-22T02:30:23.670Z,79.63
2017-10-22T02:31:23.595Z,79.19
2017-10-22T02:32:23.680Z,79.67
2017-10-22T02:33:23.539Z,79.77
2017-10-22T02:34:23.585Z,79.53
2017-10-22T02:35:23.485Z,79.25
2017-10-22T02:36:23.494Z,79.06
2017-10-22T02:37:23.435Z,79.77
2017-10-22T02:38:23.514Z,79.10
2017-10-22T02:39:23.392Z,79.38
2017-10-22T02:40:23.435Z,79.48
2017-10-22T02:41:23.334Z,79.48
2017-10-22T02:42:23.328Z,79.57
2017-10-22T02:43:23.283Z,79.10
2017-10-22T02:44:23.346Z,78.91
2017-10-22T02:45:23.230Z,79.10
2017-10-22T02:46:23.253Z,79.10
2017-10-22T02:47:23.174Z,79.19
2017-10-22T02:48:23.268Z,79.48
2017-10-22T02:49:23.123Z,79.57
2017-10-22T02:50:23.174Z,79.10
2017-10-22T02:51:23.075Z,79.38
2017-10-22T02:52:23.084Z,78.62
2017-10-22T02:53:23.029Z,79.38
2017-10-22T02:54:23.100Z,79.67
2017-10-22T02:55:22.973Z,79.19
2017-10-22T02:56:23.007Z,79.28
2017-10-22T02:57:22.918Z,79.10
2017-10-22T02:58:22.921Z,78.81
2017-10-22T02:59:22.882Z,79.00
2017-10-22T03:00:22.931Z,79.00
2017-10-22T03:01:22.817Z,79.77
2017-10-22T03:02:22.841Z,79.38
2017-10-22T03:03:22.762Z,79.67
2017-10-22T03:04:22.850Z,79.10
2017-10-22T03:05:22.712Z,79.57
2017-10-22T03:06:22.766Z,79.72
2017-10-22T03:07:22.663Z,79.96
2017-10-22T03:08:22.674Z,80.05
2017-10-22T03:09:22.611Z,80.24
2017-10-22T03:10:22.683Z,80.62
2017-10-22T03:11:22.556Z,80.58
2017-10-22T03:12:22.596Z,81.82
2017-10-22T03:13:22.506Z,81.73
2017-10-22T03:14:22.506Z,81.63
2017-10-22T03:15:22.460Z,82.30
2017-10-22T03:16:22.517Z,82.11
2017-10-22T03:17:22.406Z,82.11
2017-10-22T03:18:22.428Z,82.68
2017-10-22T03:19:22.353Z,83.06
2017-10-22T03:20:22.442Z,83.35
2017-10-22T03:21:22.300Z,84.11
2017-10-22T03:22:22.351Z,84.59
2017-10-22T03:23:22.254Z,84.78
2017-10-22T03:24:22.262Z,85.25
2017-10-22T03:25:22.193Z,86.30
2017-10-22T03:26:22.276Z,86.78
2017-10-22T03:27:22.150Z,86.74
2017-10-22T03:28:22.190Z,87.83
2017-10-22T03:29:22.101Z,88.40
2017-10-22T03:30:22.099Z,88.84
2017-10-22T03:31:22.040Z,89.12
2017-10-22T03:32:22.112Z,89.79
2017-10-22T03:33:21.989Z,90.26
2017-10-22T03:34:22.020Z,90.36
2017-10-22T03:35:21.936Z,91.60
2017-10-22T03:36:21.930Z,91.41
2017-10-22T03:37:21.882Z,91.31
2017-10-22T03:38:21.946Z,91.31
2017-10-22T03:39:21.835Z,91.69
2017-10-22T03:40:21.854Z,92.74
2017-10-22T03:41:21.783Z,93.51
2017-10-22T03:42:22.787Z,93.51
2017-10-22T03:43:21.732Z,93.17
2017-10-22T03:44:21.772Z,93.74
2017-10-22T03:45:21.695Z,94.22
2017-10-22T03:46:21.683Z,94.41
2017-10-22T03:47:21.626Z,94.70
2017-10-22T03:48:21.694Z,95.27
2017-10-22T03:49:21.578Z,95.75
2017-10-22T03:50:21.606Z,96.32
2017-10-22T03:51:21.528Z,96.22
2017-10-22T03:52:21.512Z,96.51
2017-10-22T03:53:21.467Z,96.80
2017-10-22T03:54:21.530Z,96.89
2017-10-22T03:55:21.417Z,96.80
2017-10-22T03:56:21.433Z,96.89
2017-10-22T03:57:21.364Z,96.32
2017-10-22T03:58:21.450Z,96.80
2017-10-22T03:59:21.315Z,96.98
2017-10-22T04:00:21.356Z,96.70
2017-10-22T04:01:21.260Z,97.27
2017-10-22T04:02:21.269Z,98.32
2017-10-22T04:03:21.207Z,97.84
2017-10-22T04:04:21.279Z,97.94
2017-10-22T04:05:21.155Z,97.75
2017-10-22T04:06:21.192Z,97.79
2017-10-22T04:07:21.105Z,97.99
2017-10-22T04:08:21.103Z,97.70
2017-10-22T04:09:21.052Z,97.89
2017-10-22T04:10:21.113Z,97.89
2017-10-22T04:11:20.998Z,98.70
2017-10-22T04:12:21.025Z,98.18
2017-10-22T04:13:20.943Z,98.46
2017-10-22T04:14:20.935Z,98.27
2017-10-22T04:15:20.892Z,98.46
2017-10-22T04:16:20.948Z,98.36
2017-10-22T04:17:20.836Z,98.55
2017-10-22T04:18:20.857Z,98.27
2017-10-22T04:19:20.787Z,98.65
2017-10-22T04:20:20.869Z,99.41
2017-10-22T04:21:20.737Z,99.13
2017-10-22T04:22:20.780Z,98.65
2017-10-22T04:23:20.686Z,97.99
2017-10-22T04:24:20.689Z,98.55
2017-10-22T04:25:20.626Z,98.27
2017-10-22T04:26:20.700Z,98.55
2017-10-22T04:27:20.570Z,98.08
2017-10-22T04:28:20.611Z,98.84
2017-10-22T04:29:20.521Z,98.46
2017-10-22T04:30:20.519Z,98.94
2017-10-22T04:31:20.473Z,98.94
2017-10-22T04:32:20.531Z,98.65
2017-10-22T04:33:20.407Z,99.41
2017-10-22T04:34:20.441Z,98.65
2017-10-22T04:35:20.359Z,98.36
2017-10-22T04:36:20.352Z,99.03
2017-10-22T04:37:20.304Z,99.22
2017-10-22T04:38:20.366Z,98.65
2017-10-22T04:39:20.256Z,99.41
2017-10-22T04:40:20.277Z,99.32
2017-10-22T04:41:20.194Z,98.65
2017-10-22T04:42:20.191Z,99.32
2017-10-22T04:43:20.152Z,99.13
2017-10-22T04:44:20.199Z,98.94
2017-10-22T04:45:20.095Z,99.13
2017-10-22T04:46:20.112Z,99.46
2017-10-22T04:47:20.036Z,99.03
2017-10-22T04:48:20.124Z,99.99
2017-10-22T04:49:19.986Z,99.79
2017-10-22T04:50:20.040Z,99.99
2017-10-22T04:51:19.938Z,99.98
2017-10-22T04:52:19.946Z,99.89
2017-10-22T04:53:19.880Z,99.41
2017-10-22T04:54:19.960Z,99.79
2017-10-22T04:55:19.827Z,99.99
2017-10-22T04:56:19.860Z,99.99
2017-10-22T04:57:19.776Z,99.99
2017-10-22T04:58:19.775Z,99.99
2017-10-22T04:59:19.719Z,99.79
2017-10-22T05:00:19.786Z,99.99
2017-10-22T05:01:19.665Z,99.89
2017-10-22T05:02:19.694Z,99.60
2017-10-22T05:03:19.614Z,99.79
2017-10-22T05:04:19.606Z,99.98
2017-10-22T05:05:19.564Z,99.99
2017-10-22T05:06:19.620Z,99.99
2017-10-22T05:07:19.506Z,99.99
2017-10-22T05:08:19.527Z,99.89
2017-10-22T05:09:19.451Z,99.99
2017-10-22T05:10:19.437Z,99.69
2017-10-22T05:11:19.410Z,99.69
2017-10-22T05:12:19.450Z,99.99
2017-10-22T05:13:19.346Z,99.99
2017-10-22T05:14:19.362Z,99.69
2017-10-22T05:15:19.294Z,99.60
2017-10-22T05:16:19.374Z,99.99
2017-10-22T05:17:19.242Z,99.69
2017-10-22T05:18:19.283Z,99.89
2017-10-22T05:19:19.184Z,99.99
2017-10-22T05:20:19.194Z,99.99
2017-10-22T05:21:19.132Z,99.99
2017-10-22T05:22:19.206Z,99.99
2017-10-22T05:23:19.080Z,99.99
2017-10-22T05:24:19.116Z,99.99
2017-10-22T05:25:19.023Z,99.99
2017-10-22T05:26:19.027Z,99.98
2017-10-22T05:27:18.970Z,99.60
2017-10-22T05:28:19.040Z,99.79
2017-10-22T05:29:18.917Z,99.60
2017-10-22T05:30:18.949Z,99.60
2017-10-22T05:31:18.863Z,99.98
2017-10-22T05:32:18.860Z,99.99
2017-10-22T05:33:18.810Z,99.99
2017-10-22T05:34:18.872Z,99.99
2017-10-22T05:35:18.759Z,99.99
2017-10-22T05:36:18.779Z,99.99
2017-10-22T05:37:18.700Z,99.99
2017-10-22T05:38:18.691Z,99.99
2017-10-22T05:39:18.649Z,99.98
2017-10-22T05:40:18.705Z,99.89
2017-10-22T05:41:18.598Z,99.79
2017-10-22T05:42:18.616Z,99.60
2017-10-22T05:43:18.540Z,99.89
2017-10-22T05:44:18.629Z,99.89
2017-10-22T05:45:18.488Z,99.65
2017-10-22T05:46:18.539Z,99.79
2017-10-22T05:47:18.436Z,99.99
2017-10-22T05:48:18.447Z,99.99
2017-10-22T05:49:18.377Z,99.99
2017-10-22T05:50:18.467Z,99.60
2017-10-22T05:51:18.328Z,99.99
2017-10-22T05:52:18.373Z,99.99
2017-10-22T05:53:18.277Z,99.79
2017-10-22T05:54:18.280Z,99.98
2017-10-22T05:55:18.217Z,99.32
2017-10-22T05:56:18.293Z,99.22
2017-10-22T05:57:18.165Z,99.37
2017-10-22T05:58:18.203Z,99.37
2017-10-22T05:59:18.114Z,99.22
2017-10-22T06:00:18.114Z,99.18
2017-10-22T06:01:18.060Z,98.51
2017-10-22T06:02:18.126Z,98.60
2017-10-22T06:03:18.006Z,98.51
2017-10-22T06:04:18.035Z,98.41
2017-10-22T06:05:17.954Z,98.70
2017-10-22T06:06:17.944Z,98.51
2017-10-22T06:07:17.896Z,98.22
2017-10-22T06:08:17.959Z,98.22
2017-10-22T06:09:17.848Z,98.41
2017-10-22T06:10:17.867Z,98.13
2017-10-22T06:11:17.791Z,98.41
2017-10-22T06:12:17.781Z,98.41
2017-10-22T06:13:17.735Z,98.41
2017-10-22T06:14:17.791Z,98.60
2017-10-22T06:15:17.683Z,98.41
2017-10-22T06:16:17.701Z,98.13
2017-10-22T06:17:17.628Z,97.94
2017-10-22T06:18:17.714Z,98.13
2017-10-22T06:19:17.572Z,98.22
2017-10-22T06:20:17.624Z,97.84
2017-10-22T06:21:17.523Z,98.13
2017-10-22T06:22:17.532Z,97.75
2017-10-22T06:23:17.466Z,98.32
2017-10-22T06:24:17.544Z,98.51
2017-10-22T06:25:17.417Z,98.32
2017-10-22T06:26:17.459Z,97.65
2017-10-22T06:27:17.360Z,97.75
2017-10-22T06:28:17.368Z,97.75
2017-10-22T06:29:17.305Z,97.56
2017-10-22T06:30:17.381Z,97.94
2017-10-22T06:31:17.255Z,98.03
2017-10-22T06:32:17.225Z,98.60
2017-10-22T06:33:17.379Z,98.60
2017-10-22T06:34:17.173Z,98.60
2017-10-22T06:35:17.286Z,99.27
2017-10-22T06:36:17.120Z,99.46
2017-10-22T06:37:17.090Z,99.46
2017-10-22T06:38:17.204Z,99.65
2017-10-22T06:39:17.042Z,99.94
2017-10-22T06:40:17.115Z,99.99
2017-10-22T06:41:16.990Z,99.55
2017-10-22T06:42:17.132Z,99.75
2017-10-22T06:43:16.930Z,99.99
2017-10-22T06:44:17.041Z,99.94
2017-10-22T06:45:16.881Z,99.65
2017-10-22T06:46:17.055Z,99.55
2017-10-22T06:47:16.826Z,99.84
2017-10-22T06:48:16.966Z,99.84
2017-10-22T06:49:16.774Z,99.55
2017-10-22T06:50:16.877Z,99.94
2017-10-22T06:51:16.719Z,99.99
2017-10-22T06:52:16.890Z,99.99
2017-10-22T06:53:16.663Z,99.99
2017-10-22T06:54:16.805Z,99.99
2017-10-22T06:55:16.610Z,99.99
2017-10-22T06:56:16.714Z,99.99
2017-10-22T06:57:16.559Z,99.99
2017-10-22T06:58:16.729Z,99.99
2017-10-22T06:59:16.510Z,99.99
2017-10-22T07:00:16.637Z,99.99
2017-10-22T07:01:16.452Z,99.99
2017-10-22T07:02:16.557Z,99.99
2017-10-22T07:03:16.398Z,99.99
2017-10-22T07:04:16.579Z,99.94
2017-10-22T07:05:16.345Z,99.18
2017-10-22T07:06:16.477Z,99.27
2017-10-22T07:07:16.294Z,99.46
2017-10-22T07:08:16.392Z,99.18
2017-10-22T07:09:16.246Z,99.08
2017-10-22T07:10:16.400Z,99.37
2017-10-22T07:11:16.185Z,98.41
2017-10-22T07:12:16.210Z,99.46
2017-10-22T07:13:16.132Z,99.18
2017-10-22T07:14:16.121Z,99.08
2017-10-22T07:15:16.080Z,99.18
2017-10-22T07:16:16.135Z,99.75
2017-10-22T07:17:16.033Z,99.99
2017-10-22T07:18:16.061Z,99.99
2017-10-22T07:19:15.973Z,99.94
2017-10-22T07:20:16.079Z,99.84
2017-10-22T07:21:15.919Z,99.84
2017-10-22T07:22:15.978Z,99.99
2017-10-22T07:23:15.863Z,99.46
2017-10-22T07:24:15.883Z,99.46
2017-10-22T07:25:15.809Z,98.99
2017-10-22T07:26:15.895Z,99.27
2017-10-22T07:27:15.759Z,99.37
2017-10-22T07:28:15.809Z,99.46
2017-10-22T07:29:15.705Z,99.08
2017-10-22T07:30:15.723Z,98.51
2017-10-22T07:31:15.652Z,97.75
2017-10-22T07:32:15.733Z,97.84
2017-10-22T07:33:15.598Z,97.75
2017-10-22T07:34:15.647Z,98.03
2017-10-22T07:35:15.546Z,97.27
2017-10-22T07:36:15.555Z,97.27
2017-10-22T07:37:15.493Z,97.94
2017-10-22T07:38:15.569Z,98.32
2017-10-22T07:39:15.435Z,97.75
2017-10-22T07:40:15.486Z,97.75
2017-10-22T07:41:15.381Z,98.32
2017-10-22T07:42:15.499Z,98.03
2017-10-22T07:43:15.330Z,98.60
2017-10-22T07:44:15.412Z,98.60
2017-10-22T07:45:15.273Z,98.60
2017-10-22T07:46:15.321Z,98.13
2017-10-22T07:47:15.226Z,98.32
2017-10-22T07:48:15.335Z,99.55
2017-10-22T07:49:15.169Z,99.46
2017-10-22T07:50:15.247Z,98.79
2017-10-22T07:51:15.119Z,98.22
2017-10-22T07:52:15.158Z,99.18
2017-10-22T07:53:15.064Z,98.32
2017-10-22T07:54:15.182Z,98.41
2017-10-22T07:55:15.013Z,98.22
2017-10-22T07:56:15.087Z,98.22
2017-10-22T07:57:14.957Z,98.51
2017-10-22T07:58:14.994Z,98.79
2017-10-22T07:59:14.909Z,98.41
2017-10-22T08:00:15.010Z,98.03
2017-10-22T08:01:14.850Z,98.13
2017-10-22T08:02:14.921Z,97.94
2017-10-22T08:03:14.796Z,97.84
2017-10-22T08:04:14.832Z,98.51
2017-10-22T08:05:14.746Z,97.75
2017-10-22T08:06:14.851Z,98.51
2017-10-22T08:07:14.691Z,97.99
2017-10-22T08:08:14.758Z,96.89
2017-10-22T08:09:14.637Z,97.61
2017-10-22T08:10:14.771Z,97.70
2017-10-22T08:11:14.587Z,98.18
2017-10-22T08:12:14.698Z,96.84
2017-10-22T08:13:14.531Z,96.94
2017-10-22T08:14:14.592Z,96.46
2017-10-22T08:15:14.482Z,96.46
2017-10-22T08:16:14.610Z,96.75
2017-10-22T08:17:14.428Z,96.56
2017-10-22T08:18:14.463Z,97.03
2017-10-22T08:19:14.383Z,96.56
2017-10-22T08:20:14.375Z,97.32
2017-10-22T08:21:14.321Z,96.75
2017-10-22T08:22:14.450Z,96.46
2017-10-22T08:23:14.281Z,96.84
2017-10-22T08:24:14.358Z,95.98
2017-10-22T08:25:14.215Z,96.36
2017-10-22T08:26:14.210Z,96.08
2017-10-22T08:27:14.164Z,96.84
2017-10-22T08:28:14.290Z,95.70
2017-10-22T08:29:14.116Z,96.27
2017-10-22T08:30:14.200Z,96.08
2017-10-22T08:31:14.062Z,96.36
2017-10-22T08:32:14.213Z,95.70
2017-10-22T08:33:14.007Z,95.51
2017-10-22T08:34:13.982Z,95.79
2017-10-22T08:35:14.056Z,95.79
2017-10-22T08:36:13.930Z,95.12
2017-10-22T08:37:13.976Z,94.84
2017-10-22T08:38:13.874Z,95.12
2017-10-22T08:39:13.853Z,94.74
2017-10-22T08:40:13.822Z,94.56
2017-10-22T08:41:13.927Z,94.74
2017-10-22T08:42:13.772Z,94.27
2017-10-22T08:43:13.809Z,94.65
2017-10-22T08:44:13.719Z,94.79
2017-10-22T08:45:13.713Z,94.56
2017-10-22T08:46:13.664Z,95.22
2017-10-22T08:47:13.723Z,94.93
2017-10-22T08:48:13.617Z,95.27
2017-10-22T08:49:13.637Z,95.70
2017-10-22T08:50:13.564Z,95.70
2017-10-22T08:51:13.645Z,95.89
2017-10-22T08:52:13.508Z,95.61
2017-10-22T08:53:13.657Z,95.51
2017-10-22T08:54:13.456Z,95.61
2017-10-22T08:55:13.577Z,95.79
2017-10-22T08:56:13.405Z,95.51
2017-10-22T08:57:13.563Z,95.70
2017-10-22T08:58:13.353Z,96.65
2017-10-22T08:59:13.476Z,96.46
2017-10-22T09:00:13.300Z,96.46
2017-10-22T09:01:13.388Z,96.08
2017-10-22T09:02:13.248Z,96.17
2017-10-22T09:03:13.223Z,96.46
2017-10-22T09:04:13.306Z,96.36
2017-10-22T09:05:13.171Z,96.46
2017-10-22T09:06:13.322Z,96.08
2017-10-22T09:07:13.119Z,96.56
2017-10-22T09:08:13.090Z,96.46
2017-10-22T09:09:13.067Z,95.89
2017-10-22T09:10:13.244Z,96.27
2017-10-22T09:11:13.013Z,96.46
2017-10-22T09:12:13.153Z,96.27
2017-10-22T09:13:12.970Z,96.27
2017-10-22T09:14:13.067Z,95.70
2017-10-22T09:15:12.908Z,96.27
2017-10-22T09:16:13.082Z,96.75
2017-10-22T09:17:12.853Z,96.46
2017-10-22T09:18:12.992Z,96.46
2017-10-22T09:19:12.810Z,96.27
2017-10-22T09:20:12.902Z,96.46
2017-10-22T09:21:12.756Z,95.98
2017-10-22T09:22:12.918Z,96.08
2017-10-22T09:23:12.693Z,96.36
2017-10-22T09:24:12.724Z,96.65
2017-10-22T09:25:12.648Z,96.27
2017-10-22T09:26:12.737Z,96.65
2017-10-22T09:27:12.599Z,96.46
2017-10-22T09:28:12.752Z,96.36
2017-10-22T09:29:12.545Z,95.98
2017-10-22T09:30:12.662Z,95.98
2017-10-22T09:31:12.495Z,96.46
2017-10-22T09:32:12.677Z,96.56
2017-10-22T09:33:12.440Z,96.27
2017-10-22T09:34:12.586Z,96.75
2017-10-22T09:35:12.389Z,96.56
2017-10-22T09:36:12.397Z,95.46
2017-10-22T09:37:12.335Z,95.94
2017-10-22T09:38:12.413Z,95.65
2017-10-22T09:39:12.287Z,96.32
2017-10-22T09:40:12.319Z,95.75
2017-10-22T09:41:12.237Z,95.65
2017-10-22T09:42:12.232Z,95.65
2017-10-22T09:43:12.180Z,95.65
2017-10-22T09:44:12.248Z,95.17
2017-10-22T09:45:12.123Z,94.79
2017-10-22T09:46:12.160Z,94.22
2017-10-22T09:47:12.076Z,94.79
2017-10-22T09:48:12.158Z,94.79
2017-10-22T09:49:12.022Z,95.27
2017-10-22T09:50:12.086Z,95.84
2017-10-22T09:51:11.967Z,94.70
2017-10-22T09:52:12.015Z,94.22
2017-10-22T09:53:11.925Z,94.60
2017-10-22T09:54:12.031Z,94.22
2017-10-22T09:55:11.870Z,94.70
2017-10-22T09:56:11.924Z,95.27
2017-10-22T09:57:11.819Z,94.79
2017-10-22T09:58:11.836Z,94.22
2017-10-22T09:59:11.763Z,94.70
2017-10-22T10:00:11.847Z,94.12
2017-10-22T10:01:11.708Z,94.22
2017-10-22T10:02:11.777Z,95.27
2017-10-22T10:03:11.657Z,94.60
2017-10-22T10:04:11.773Z,94.60
2017-10-22T10:05:11.608Z,94.60
2017-10-22T10:06:11.681Z,94.32
2017-10-22T10:07:11.555Z,94.89
2017-10-22T10:08:11.597Z,94.79
2017-10-22T10:09:11.507Z,95.27
2017-10-22T10:10:11.610Z,94.51
2017-10-22T10:11:11.463Z,94.12
2017-10-22T10:12:11.521Z,94.79
2017-10-22T10:13:11.399Z,94.22
2017-10-22T10:14:11.433Z,94.79
2017-10-22T10:15:11.349Z,94.70
2017-10-22T10:16:11.446Z,94.32
2017-10-22T10:17:11.308Z,94.70
2017-10-22T10:18:11.359Z,94.41
2017-10-22T10:19:11.262Z,94.51
2017-10-22T10:20:11.371Z,93.84
2017-10-22T10:21:11.194Z,94.41
2017-10-22T10:22:11.282Z,94.70
2017-10-22T10:23:11.145Z,94.41
2017-10-22T10:24:11.194Z,94.03
2017-10-22T10:25:11.097Z,94.22
2017-10-22T10:26:11.208Z,94.32
2017-10-22T10:27:11.042Z,94.70
2017-10-22T10:28:11.120Z,94.03
2017-10-22T10:29:10.990Z,94.41
2017-10-22T10:30:11.033Z,94.89
2017-10-22T10:31:10.939Z,93.65
2017-10-22T10:32:11.057Z,94.32
2017-10-22T10:33:10.900Z,94.51
2017-10-22T10:34:10.957Z,95.17
2017-10-22T10:35:10.834Z,94.60
2017-10-22T10:36:10.972Z,94.60
2017-10-22T10:37:10.786Z,95.65
2017-10-22T10:38:10.883Z,95.27
2017-10-22T10:39:10.735Z,95.37
2017-10-22T10:40:10.794Z,95.65
2017-10-22T10:41:10.680Z,95.08
2017-10-22T10:42:10.808Z,95.84
2017-10-22T10:43:10.632Z,95.37
2017-10-22T10:44:10.720Z,94.60
2017-10-22T10:45:10.581Z,95.84
2017-10-22T10:46:10.733Z,95.56
2017-10-22T10:47:10.529Z,95.94
2017-10-22T10:48:10.649Z,96.41
2017-10-22T10:49:10.475Z,96.51
2017-10-22T10:50:10.555Z,95.75
2017-10-22T10:51:10.425Z,96.32
2017-10-22T10:52:10.570Z,96.61
2017-10-22T10:53:10.376Z,96.13
2017-10-22T10:54:10.482Z,95.75
2017-10-22T10:55:10.324Z,96.70
2017-10-22T10:56:10.393Z,95.75
2017-10-22T10:57:10.271Z,95.56
2017-10-22T10:58:10.406Z,95.65
2017-10-22T10:59:10.222Z,95.70
2017-10-22T11:00:10.319Z,95.12
2017-10-22T11:01:10.167Z,94.27
2017-10-22T11:02:10.152Z,94.84
2017-10-22T11:03:10.118Z,94.65
2017-10-22T11:04:10.244Z,94.65
2017-10-22T11:05:10.083Z,95.32
2017-10-22T11:06:10.159Z,94.46
2017-10-22T11:07:10.013Z,93.88
2017-10-22T11:08:09.991Z,94.31
2017-10-22T11:09:10.074Z,94.36
2017-10-22T11:10:09.940Z,93.88
2017-10-22T11:11:10.087Z,93.36
2017-10-22T11:12:09.891Z,93.22
2017-10-22T11:13:10.001Z,92.83
2017-10-22T11:14:09.838Z,93.74
2017-10-22T11:15:09.915Z,93.12
2017-10-22T11:16:09.789Z,92.93
2017-10-22T11:17:09.923Z,92.83
2017-10-22T11:18:09.740Z,93.41
2017-10-22T11:19:09.836Z,93.70
2017-10-22T11:20:09.685Z,93.12
2017-10-22T11:21:09.851Z,93.70
2017-10-22T11:22:09.636Z,93.79
2017-10-22T11:23:09.760Z,93.60
2017-10-22T11:24:09.770Z,94.46
2017-10-22T11:25:09.570Z,95.22
2017-10-22T11:26:10.703Z,95.22
2017-10-22T11:27:09.512Z,95.32
2017-10-22T11:28:09.589Z,95.79
2017-10-22T11:29:09.457Z,95.89
2017-10-22T11:30:09.608Z,96.56
2017-10-22T11:31:09.411Z,96.37
2017-10-22T11:32:09.514Z,95.61
2017-10-22T11:33:09.358Z,96.08
2017-10-22T11:34:09.529Z,94.84
2017-10-22T11:35:09.312Z,95.89
2017-10-22T11:36:09.445Z,95.98
2017-10-22T11:37:09.256Z,96.03
2017-10-22T11:38:09.351Z,95.22
2017-10-22T11:39:09.214Z,94.89
2017-10-22T11:40:10.287Z,93.26
2017-10-22T11:41:09.159Z,93.74
2017-10-22T11:42:09.279Z,92.79
2017-10-22T11:43:09.106Z,92.45
2017-10-22T11:44:09.287Z,92.50
2017-10-22T11:45:09.054Z,88.96
2017-10-22T11:46:09.204Z,89.29
2017-10-22T11:47:09.007Z,88.05
2017-10-22T11:48:09.114Z,87.19
2017-10-22T11:49:08.958Z,86.14
2017-10-22T11:50:09.125Z,87.05
2017-10-22T11:51:08.909Z,89.06
2017-10-22T11:52:09.040Z,88.48
2017-10-22T11:53:08.863Z,88.48
2017-10-22T11:54:09.053Z,89.15
2017-10-22T11:55:08.814Z,88.06
2017-10-22T11:56:08.961Z,89.20
2017-10-22T11:57:08.771Z,88.54
2017-10-22T11:58:08.881Z,88.73
2017-10-22T11:59:08.721Z,88.63
2017-10-22T12:00:08.794Z,88.73
2017-10-22T12:01:08.667Z,89.30
2017-10-22T12:02:08.700Z,88.92
2017-10-22T12:03:08.622Z,89.11
2017-10-22T12:04:08.713Z,89.20
2017-10-22T12:05:08.580Z,88.73
2017-10-22T12:06:08.632Z,88.82
2017-10-22T12:07:08.518Z,89.01
2017-10-22T12:08:08.537Z,88.44
2017-10-22T12:09:08.479Z,87.68
2017-10-22T12:10:08.553Z,88.11
2017-10-22T12:11:08.426Z,88.82
2017-10-22T12:12:08.463Z,88.73
2017-10-22T12:13:08.377Z,88.97
2017-10-22T12:14:08.480Z,88.73
2017-10-22T12:15:08.333Z,88.63
2017-10-22T12:16:08.388Z,87.01
2017-10-22T12:17:08.285Z,86.91
2017-10-22T12:18:08.300Z,87.01
2017-10-22T12:19:08.232Z,87.24
2017-10-22T12:20:08.314Z,87.20
2017-10-22T12:21:08.182Z,87.68
2017-10-22T12:22:08.227Z,88.29
2017-10-22T12:23:08.138Z,87.43
2017-10-22T12:24:08.244Z,87.01
2017-10-22T12:25:08.080Z,86.24
2017-10-22T12:26:08.155Z,86.43
2017-10-22T12:27:08.042Z,86.82
2017-10-22T12:28:08.215Z,86.82
2017-10-22T12:29:07.988Z,87.06
2017-10-22T12:30:08.087Z,87.87
2017-10-22T12:31:07.941Z,87.92
2017-10-22T12:32:08.001Z,88.30
2017-10-22T12:33:07.892Z,88.30
2017-10-22T12:34:08.002Z,87.44
2017-10-22T12:35:07.912Z,88.40
2017-10-22T12:36:07.818Z,88.40
2017-10-22T12:37:07.924Z,88.68
2017-10-22T12:38:07.767Z,88.59
2017-10-22T12:39:07.838Z,87.92
2017-10-22T12:40:07.724Z,88.11
2017-10-22T12:41:07.846Z,87.82
2017-10-22T12:42:07.668Z,88.01
2017-10-22T12:43:07.760Z,88.40
2017-10-22T12:44:07.620Z,88.01
2017-10-22T12:45:07.668Z,88.30
2017-10-22T12:46:07.572Z,87.82
2017-10-22T12:47:07.685Z,87.25
2017-10-22T12:48:07.520Z,88.11
2017-10-22T12:49:07.592Z,87.63
2017-10-22T12:50:07.477Z,86.77
2017-10-22T12:51:07.608Z,87.06
2017-10-22T12:52:07.424Z,87.54